Time;durP1;ratioP1;P1;durP2;ratioP2;P2;SDS_P1;SDS_P2;PMS_P1;PMS_P2;Temp;Humidity;BMP_temperature;BMP_pressure;BME280_temperature;BME280_humidity;BME280_pressure;Samples;Min_cycle;Max_cycle;Signal;HPM_P1;HPM_P2
2022/01/07 00:01:26;293364.00;0.98;506.51;0.00;0.00;0.62;;;;;9.40;1.00;;;;;;2264408;61;1512;-87
2022/01/07 00:03:53;379007.00;1.26;653.72;0.00;0.00;0.62;;;;;9.40;1.00;;;;;;2260978;61;998;-88
2022/01/07 00:06:21;486856.00;1.62;839.20;0.00;0.00;0.62;;;;;9.40;1.00;;;;;;2264380;61;1058;-88
2022/01/07 00:08:49;450724.00;1.50;777.03;0.00;0.00;0.62;;;;;9.60;1.00;;;;;;2264268;61;1011;-89
2022/01/07 00:11:16;360750.00;1.20;622.34;0.00;0.00;0.62;;;;;9.50;1.00;;;;;;2270912;61;1310;-87
2022/01/07 00:13:43;393602.00;1.31;678.81;0.00;0.00;0.62;;;;;9.40;1.00;;;;;;2266365;61;1994;-87
2022/01/07 00:16:11;351633.00;1.17;606.67;0.00;0.00;0.62;;;;;9.60;1.00;;;;;;2276703;60;1087;-88
2022/01/07 00:18:39;318091.00;1.06;549.02;0.00;0.00;0.62;;;;;9.60;1.00;;;;;;2284581;60;971;-89
2022/01/07 00:21:07;317378.00;1.06;547.79;0.00;0.00;0.62;;;;;8.90;1.00;;;;;;2277441;60;1317;-89
2022/01/07 00:23:34;484076.00;1.61;834.41;0.00;0.00;0.62;;;;;7.70;1.00;;;;;;2284598;60;1022;-89
2022/01/07 00:26:03;459895.00;1.53;792.80;33134.00;0.11;58.01;;;;;7.20;1.00;;;;;;2276017;61;987;-88
2022/01/07 00:28:30;397132.00;1.32;684.87;0.00;0.00;0.62;;;;;6.50;1.00;;;;;;2265813;61;1192;-88
2022/01/07 00:30:57;459725.00;1.53;792.51;0.00;0.00;0.62;;;;;6.30;1.00;;;;;;2275935;61;1311;-89
2022/01/07 00:33:24;572446.00;1.91;986.67;17934.00;0.06;31.69;;;;;6.10;1.00;;;;;;2275780;61;1982;-88
2022/01/07 00:35:52;304391.00;1.01;525.47;0.00;0.00;0.62;;;;;5.60;1.00;;;;;;2275878;61;1092;-89
2022/01/07 00:38:19;588088.00;1.96;1013.66;0.00;0.00;0.62;;;;;5.70;1.00;;;;;;2269112;61;1149;-88
2022/01/07 00:40:46;355607.00;1.19;613.50;0.00;0.00;0.62;;;;;5.90;1.00;;;;;;2275784;61;1340;-89
2022/01/07 00:43:15;429049.00;1.43;739.75;0.00;0.00;0.62;;;;;6.10;1.00;;;;;;2277040;61;984;-88
2022/01/07 00:45:42;475213.00;1.58;819.16;0.00;0.00;0.62;;;;;5.70;1.00;;;;;;2271814;61;1093;-87
2022/01/07 00:48:09;360933.00;1.20;622.65;0.00;0.00;0.62;;;;;5.80;1.00;;;;;;2271773;61;1082;-89
2022/01/07 00:50:36;560814.00;1.87;966.60;0.00;0.00;0.62;;;;;5.60;1.00;;;;;;2267523;61;1724;-88
2022/01/07 00:53:03;510788.00;1.70;880.40;0.00;0.00;0.62;;;;;5.40;1.00;;;;;;2267529;61;1070;-89
2022/01/07 00:55:31;629108.00;2.10;1084.51;17457.00;0.06;30.87;;;;;5.80;1.00;;;;;;2259596;61;1922;-89
2022/01/07 00:57:58;461539.00;1.54;795.63;0.00;0.00;0.62;;;;;6.30;1.00;;;;;;2249621;61;1228;-89
2022/01/07 01:00:28;304407.00;1.01;525.50;0.00;0.00;0.62;;;;;7.50;1.00;;;;;;2259371;61;1192;-88
2022/01/07 01:02:56;440472.00;1.47;759.39;0.00;0.00;0.62;;;;;7.30;1.00;;;;;;2250186;61;1015;-88
2022/01/07 01:05:24;354047.00;1.18;610.82;0.00;0.00;0.62;;;;;7.10;1.00;;;;;;2263483;61;1131;-88
2022/01/07 01:07:51;637231.00;2.12;1098.55;49128.00;0.16;85.68;;;;;6.30;1.00;;;;;;2261692;61;1096;-88
2022/01/07 01:10:21;566527.00;1.89;976.46;0.00;0.00;0.62;;;;;6.20;1.00;;;;;;2275477;61;1167;-89
2022/01/07 01:12:48;480641.00;1.60;828.50;0.00;0.00;0.62;;;;;6.10;1.00;;;;;;2277053;61;1416;-89
2022/01/07 01:15:20;486129.00;1.62;837.95;0.00;0.00;0.62;;;;;7.10;1.00;;;;;;2284232;61;1990;-89
2022/01/07 01:17:48;377019.00;1.26;650.30;0.00;0.00;0.62;;;;;8.10;1.00;;;;;;2284403;60;925;-89
2022/01/07 01:20:15;428922.00;1.43;739.53;0.00;0.00;0.62;;;;;8.80;1.00;;;;;;2284354;61;1004;-89
2022/01/07 01:22:43;736703.00;2.46;1270.95;75543.00;0.25;131.34;;;;;9.10;1.00;;;;;;2284276;61;1428;-89
2022/01/07 01:25:10;556213.00;1.85;958.67;812.00;0.00;2.03;;;;;8.50;1.00;;;;;;2283639;61;1600;-88
2022/01/07 01:27:39;317826.00;1.06;548.56;0.00;0.00;0.62;;;;;8.10;1.00;;;;;;2284331;60;1110;-89
2022/01/07 01:30:11;410163.00;1.37;707.28;0.00;0.00;0.62;;;;;8.00;1.00;;;;;;2284182;60;1093;-89
2022/01/07 01:32:39;485964.00;1.62;837.66;34203.00;0.11;59.86;;;;;8.00;1.00;;;;;;2284277;60;1470;-89
2022/01/07 01:35:09;492831.00;1.64;849.48;23687.00;0.08;41.65;;;;;7.60;1.00;;;;;;2284366;60;1997;-88
2022/01/07 01:37:36;443941.00;1.48;765.36;0.00;0.00;0.62;;;;;7.80;1.00;;;;;;2284351;60;1011;-89
2022/01/07 01:40:05;375857.00;1.25;648.30;0.00;0.00;0.62;;;;;7.20;1.00;;;;;;2277107;61;1012;-88
2022/01/07 01:42:33;476494.00;1.59;821.36;0.00;0.00;0.62;;;;;6.90;1.00;;;;;;2284291;60;1421;-88
2022/01/07 01:45:00;384943.00;1.28;663.92;0.00;0.00;0.62;;;;;6.60;1.00;;;;;;2284292;60;1129;-87
2022/01/07 01:47:27;449623.00;1.50;775.13;0.00;0.00;0.62;;;;;5.60;1.00;;;;;;2284387;60;1111;-88
2022/01/07 01:49:54;466487.00;1.55;804.15;0.00;0.00;0.62;;;;;5.30;1.00;;;;;;2284280;60;1099;-87
2022/01/07 01:52:22;439990.00;1.47;758.57;0.00;0.00;0.62;;;;;5.40;1.00;;;;;;2284289;60;1312;-87
2022/01/07 01:54:49;516009.00;1.72;889.39;0.00;0.00;0.62;;;;;5.10;1.00;;;;;;2271513;61;1915;-88
2022/01/07 01:57:16;516355.00;1.72;889.99;0.00;0.00;0.62;;;;;5.30;1.00;;;;;;2271620;61;1076;-88
2022/01/07 01:59:43;765298.00;2.55;1320.67;0.00;0.00;0.62;;;;;5.20;1.00;;;;;;2271583;61;1108;-86
2022/01/07 02:02:10;590647.00;1.97;1018.07;50342.00;0.17;87.78;;;;;5.10;1.00;;;;;;2271485;61;1412;-87
2022/01/07 02:04:40;524597.00;1.75;904.18;0.00;0.00;0.62;;;;;4.90;1.00;;;;;;2271544;61;917;-87
2022/01/07 02:07:08;499846.00;1.67;861.56;0.00;0.00;0.62;;;;;4.70;1.00;;;;;;2271452;61;1126;-87
2022/01/07 02:09:37;453131.00;1.51;781.17;0.00;0.00;0.62;;;;;4.50;1.00;;;;;;2264697;61;1009;-87
2022/01/07 02:12:05;739716.00;2.47;1276.18;30271.00;0.10;53.05;;;;;3.70;1.00;;;;;;2269841;61;1331;-87
2022/01/07 02:14:32;449029.00;1.50;774.11;0.00;0.00;0.62;;;;;3.30;1.00;;;;;;2284141;61;1997;-88
2022/01/07 02:17:05;854570.00;2.85;1476.47;0.00;0.00;0.62;;;;;2.80;1.00;;;;;;2284268;60;1059;-87
2022/01/07 02:19:34;411683.00;1.37;709.89;0.00;0.00;0.62;;;;;2.80;1.00;;;;;;2277109;61;1000;-87
2022/01/07 02:22:01;613669.00;2.05;1057.83;0.00;0.00;0.62;;;;;2.90;1.00;;;;;;2284004;60;1348;-88
2022/01/07 02:24:28;552422.00;1.84;952.13;8678.00;0.03;15.66;;;;;3.20;1.00;;;;;;2284107;60;1124;-88
2022/01/07 02:26:57;672114.00;2.24;1158.91;53261.00;0.18;92.83;;;;;3.00;1.00;;;;;;2284082;60;1006;-88
2022/01/07 02:29:23;518871.00;1.73;894.32;0.00;0.00;0.62;;;;;2.90;1.00;;;;;;2275343;61;1112;-88
2022/01/07 02:31:50;494979.00;1.65;853.18;0.00;0.00;0.62;;;;;3.00;1.00;;;;;;2265274;61;1393;-88
2022/01/07 02:34:17;514249.00;1.71;886.36;0.00;0.00;0.62;;;;;3.00;1.00;;;;;;2263196;61;1993;-88
2022/01/07 02:36:46;439422.00;1.46;757.59;0.00;0.00;0.62;;;;;3.10;1.00;;;;;;2263203;61;1143;-88
2022/01/07 02:39:13;510219.00;1.70;879.42;0.00;0.00;0.62;;;;;3.60;1.00;;;;;;2259995;61;974;-88
2022/01/07 02:41:40;715225.00;2.38;1233.65;0.00;0.00;0.62;;;;;4.60;1.00;;;;;;2263270;61;1291;-88
2022/01/07 02:44:07;786933.00;2.62;1358.34;0.00;0.00;0.62;;;;;5.80;1.00;;;;;;2256736;61;993;-88
2022/01/07 02:46:34;557821.00;1.86;961.44;0.00;0.00;0.62;;;;;6.10;1.00;;;;;;2264265;61;962;-88
2022/01/07 02:49:07;348313.00;1.16;600.96;0.00;0.00;0.62;;;;;5.50;1.00;;;;;;2271484;61;1080;-88
2022/01/07 02:51:34;505249.00;1.68;870.86;0.00;0.00;0.62;;;;;5.40;1.00;;;;;;2263459;61;1303;-87
2022/01/07 02:54:03;399069.00;1.33;688.20;0.00;0.00;0.62;;;;;6.50;1.00;;;;;;2273574;61;2000;-88
2022/01/07 02:56:30;364861.00;1.22;629.40;0.00;0.00;0.62;;;;;7.20;1.00;;;;;;2276932;60;1006;-87
2022/01/07 02:58:57;526797.00;1.76;907.97;0.00;0.00;0.62;;;;;7.90;1.00;;;;;;2284207;60;1155;-88
2022/01/07 03:01:24;361909.00;1.21;624.33;0.00;0.00;0.62;;;;;8.40;1.00;;;;;;2284097;61;1390;-87
2022/01/07 03:03:52;411641.00;1.37;709.82;0.00;0.00;0.62;;;;;8.60;1.00;;;;;;2276879;60;1116;-88
2022/01/07 03:06:20;382846.00;1.28;660.32;0.00;0.00;0.62;;;;;8.00;1.00;;;;;;2273514;60;1030;-88
2022/01/07 03:08:48;548111.00;1.83;944.70;80110.00;0.27;139.23;;;;;6.40;1.00;;;;;;2284119;60;1286;-88
2022/01/07 03:11:17;401092.00;1.34;691.68;0.00;0.00;0.62;;;;;5.00;1.00;;;;;;2283898;60;1474;-88
2022/01/07 03:13:44;282234.00;0.94;487.38;0.00;0.00;0.62;;;;;4.40;1.00;;;;;;2283865;60;1047;-88
2022/01/07 03:16:11;439396.00;1.46;757.54;0.00;0.00;0.62;;;;;3.50;1.00;;;;;;2276559;61;2034;-88
2022/01/07 03:18:39;487158.00;1.62;839.72;0.00;0.00;0.62;;;;;3.10;1.00;;;;;;2276734;61;968;-87
2022/01/07 03:21:06;597827.00;1.99;1030.47;0.00;0.00;0.62;;;;;2.90;1.00;;;;;;2283816;61;1413;-88
2022/01/07 03:23:35;597304.00;1.99;1029.57;9150.00;0.03;16.48;;;;;2.60;1.00;;;;;;2276517;61;1175;-87
2022/01/07 03:26:03;313713.00;1.05;541.49;0.00;0.00;0.62;;;;;2.80;1.00;;;;;;2276418;61;1005;-88
2022/01/07 03:28:31;404551.00;1.35;697.63;0.00;0.00;0.62;;;;;2.80;1.00;;;;;;2283670;60;1139;-88
2022/01/07 03:30:58;519249.00;1.73;894.97;0.00;0.00;0.62;;;;;2.90;1.00;;;;;;2283604;61;1375;-87
2022/01/07 03:33:25;567837.00;1.89;978.72;5158.00;0.02;9.56;;;;;3.10;1.00;;;;;;2276389;61;1064;-87
2022/01/07 03:35:52;511923.00;1.71;882.35;0.00;0.00;0.62;;;;;3.30;1.00;;;;;;2276256;61;1915;-88
2022/01/07 03:38:20;442049.00;1.47;762.11;0.00;0.00;0.62;;;;;3.10;1.00;;;;;;2283536;60;1057;-88
2022/01/07 03:40:47;339074.00;1.13;585.08;0.00;0.00;0.62;;;;;3.20;1.00;;;;;;2276305;61;1320;-88
2022/01/07 03:43:15;419942.00;1.40;724.09;0.00;0.00;0.62;;;;;3.40;1.00;;;;;;2283559;61;1083;-88
2022/01/07 03:45:43;451341.00;1.50;778.09;0.00;0.00;0.62;;;;;3.40;1.00;;;;;;2283573;61;1092;-88
2022/01/07 03:48:11;533757.00;1.78;919.97;4950.00;0.02;9.20;;;;;3.40;1.00;;;;;;2272957;61;1165;-88
2022/01/07 03:50:38;509581.00;1.70;878.32;0.00;0.00;0.62;;;;;3.50;1.00;;;;;;2270578;61;1376;-88
2022/01/07 03:53:06;453313.00;1.51;781.48;0.00;0.00;0.62;;;;;3.50;1.00;;;;;;2267899;61;1013;-87
2022/01/07 03:55:34;444982.00;1.48;767.15;0.00;0.00;0.62;;;;;3.80;1.00;;;;;;2268217;61;2014;-88
2022/01/07 03:58:02;387675.00;1.29;668.62;0.00;0.00;0.62;;;;;3.70;1.00;;;;;;2268453;61;1089;-88
2022/01/07 04:00:34;496564.00;1.66;855.91;0.00;0.00;0.62;;;;;3.70;1.00;;;;;;2268212;61;1388;-88
2022/01/07 04:03:03;350642.00;1.17;604.96;0.00;0.00;0.62;;;;;3.70;1.00;;;;;;2268083;61;1133;-87
2022/01/07 04:05:30;566867.00;1.89;977.04;0.00;0.00;0.62;;;;;3.50;1.00;;;;;;2268228;61;1065;-87
2022/01/07 04:07:57;688680.00;2.30;1187.61;0.00;0.00;0.62;;;;;3.90;1.00;;;;;;2273657;61;1140;-88
2022/01/07 04:10:25;404705.00;1.35;697.89;0.00;0.00;0.62;;;;;3.70;1.00;;;;;;2271236;61;1164;-88
2022/01/07 04:12:52;541034.00;1.80;932.51;0.00;0.00;0.62;;;;;3.90;1.00;;;;;;2271044;61;1402;-88
2022/01/07 04:15:21;403812.00;1.35;696.36;0.00;0.00;0.62;;;;;4.00;1.00;;;;;;2271076;61;1981;-88
2022/01/07 04:17:51;428655.00;1.43;739.07;0.00;0.00;0.62;;;;;4.20;1.00;;;;;;2271103;61;1128;-88
2022/01/07 04:20:21;736863.00;2.46;1271.22;0.00;0.00;0.62;;;;;4.10;1.00;;;;;;2268107;61;1144;-88
2022/01/07 04:22:49;573160.00;1.91;987.90;0.00;0.00;0.62;;;;;3.80;1.00;;;;;;2271597;61;1390;-88
2022/01/07 04:25:18;390400.00;1.30;673.30;0.00;0.00;0.62;;;;;4.10;1.00;;;;;;2267879;61;1253;-88
2022/01/07 04:27:47;531943.00;1.77;916.84;104054.00;0.35;180.57;;;;;4.10;1.00;;;;;;2268077;61;1777;-88
2022/01/07 04:30:14;561893.00;1.87;968.46;97760.00;0.33;169.71;;;;;4.80;1.00;;;;;;2264683;61;1172;-88
2022/01/07 04:32:43;574491.00;1.91;990.19;102197.00;0.34;177.36;;;;;5.10;1.00;;;;;;2271179;61;1468;-88
2022/01/07 04:35:11;557100.00;1.86;960.20;101451.00;0.34;176.08;;;;;5.10;1.00;;;;;;2271887;61;1982;-87
2022/01/07 04:37:40;612736.00;2.04;1056.22;102098.00;0.34;177.19;;;;;5.20;1.00;;;;;;2263691;61;1013;-88
2022/01/07 04:40:11;520419.00;1.73;896.99;99495.00;0.33;172.70;;;;;5.10;1.00;;;;;;2263622;61;1014;-88
2022/01/07 04:42:38;551944.00;1.84;951.31;68937.00;0.23;119.92;;;;;5.00;1.00;;;;;;2256953;61;1334;-88
2022/01/07 04:45:06;622284.00;2.07;1072.71;127734.00;0.43;221.42;;;;;5.00;1.00;;;;;;2257110;61;1044;-88
2022/01/07 04:47:35;714562.00;2.38;1232.50;100494.00;0.33;174.42;;;;;4.60;1.00;;;;;;2263581;61;1071;-88
2022/01/07 04:50:02;685581.00;2.29;1182.24;93688.00;0.31;162.68;;;;;4.30;1.00;;;;;;2259574;61;1082;-87
2022/01/07 04:52:28;506327.00;1.69;872.72;90756.00;0.30;157.61;;;;;4.00;1.00;;;;;;2263287;61;1435;-88
2022/01/07 04:54:57;883245.00;2.94;1526.71;96056.00;0.32;166.76;;;;;4.00;1.00;;;;;;2264373;61;1996;-88
2022/01/07 04:57:24;725264.00;2.42;1251.08;96770.00;0.32;168.00;;;;;4.80;1.00;;;;;;2271847;61;1058;-88
2022/01/07 04:59:51;665673.00;2.22;1147.76;110150.00;0.37;191.09;;;;;5.10;1.00;;;;;;2268412;61;1094;-88
2022/01/07 05:02:19;548936.00;1.83;946.13;92214.00;0.31;160.13;;;;;5.00;1.00;;;;;;2270023;60;1323;-88
2022/01/07 05:04:46;676573.00;2.26;1166.64;123125.00;0.41;213.47;;;;;5.00;1.00;;;;;;2284173;60;1068;-86
2022/01/07 05:07:13;492113.00;1.64;848.25;97321.00;0.32;168.95;;;;;5.60;1.00;;;;;;2273478;61;1158;-89
2022/01/07 05:09:40;446895.00;1.49;770.44;90696.00;0.30;157.51;;;;;5.40;1.00;;;;;;2284175;61;1081;-87
2022/01/07 05:12:09;754301.00;2.51;1301.54;99904.00;0.33;173.41;;;;;5.30;1.00;;;;;;2271399;61;1359;-89
2022/01/07 05:14:36;661292.00;2.20;1140.18;96989.00;0.32;168.37;;;;;5.10;1.00;;;;;;2271304;61;1140;-88
2022/01/07 05:17:03;713625.00;2.38;1230.87;115839.00;0.39;200.90;;;;;5.30;1.00;;;;;;2270315;61;2019;-87
2022/01/07 05:19:30;668915.00;2.23;1153.37;63651.00;0.21;110.79;;;;;5.50;1.00;;;;;;2267536;61;1070;-87
2022/01/07 05:21:57;633075.00;2.11;1091.36;100498.00;0.33;174.43;;;;;6.10;1.00;;;;;;2270970;61;1389;-88
2022/01/07 05:24:24;566297.00;1.89;976.06;100633.00;0.34;174.66;;;;;6.50;1.00;;;;;;2271036;61;1093;-88
2022/01/07 05:26:51;798768.00;2.66;1378.98;114667.00;0.38;198.88;;;;;6.70;1.00;;;;;;2264387;61;1137;-88
2022/01/07 05:29:19;560814.00;1.87;966.60;95899.00;0.32;166.49;;;;;5.80;1.00;;;;;;2272647;61;1093;-88
2022/01/07 05:31:47;713809.00;2.38;1231.19;78911.00;0.26;137.16;;;;;5.50;1.00;;;;;;2273307;61;1383;-88
2022/01/07 05:34:14;473001.00;1.58;815.35;0.00;0.00;0.62;;;;;6.50;1.00;;;;;;2275216;61;1147;-89
2022/01/07 05:36:41;392582.00;1.31;677.05;0.00;0.00;0.62;;;;;7.10;1.00;;;;;;2266764;61;2018;-89
2022/01/07 05:39:08;285159.00;0.95;492.41;0.00;0.00;0.62;;;;;6.70;1.00;;;;;;2257280;61;1146;-87
2022/01/07 05:41:35;489930.00;1.63;844.49;0.00;0.00;0.62;;;;;6.10;1.00;;;;;;2266929;61;1336;-88
2022/01/07 05:44:02;333397.00;1.11;575.32;0.00;0.00;0.62;;;;;5.80;1.00;;;;;;2267151;61;1156;-88
2022/01/07 05:46:30;377808.00;1.26;651.66;0.00;0.00;0.62;;;;;4.90;1.00;;;;;;2262580;61;1151;-88
2022/01/07 05:48:57;659780.00;2.20;1137.56;22610.00;0.08;39.79;;;;;4.60;1.00;;;;;;2262581;61;1145;-87
2022/01/07 05:51:24;483171.00;1.61;832.85;0.00;0.00;0.62;;;;;4.30;1.00;;;;;;2256112;61;1346;-87
2022/01/07 05:53:51;445879.00;1.49;768.69;0.00;0.00;0.62;;;;;3.70;1.00;;;;;;2261110;61;1121;-86
2022/01/07 05:56:18;358558.00;1.20;618.57;0.00;0.00;0.62;;;;;3.30;1.00;;;;;;2267517;61;2005;-85
2022/01/07 05:58:45;427433.00;1.42;736.97;0.00;0.00;0.62;;;;;3.50;1.00;;;;;;2263435;61;985;-86
2022/01/07 06:01:12;494584.00;1.65;852.50;13554.00;0.05;24.11;;;;;3.60;1.00;;;;;;2255428;61;1376;-86
2022/01/07 06:03:41;717582.00;2.39;1237.74;40092.00;0.13;70.05;;;;;4.40;1.00;;;;;;2246487;61;1069;-86
2022/01/07 06:06:09;355328.00;1.18;613.02;0.00;0.00;0.62;;;;;4.50;1.00;;;;;;2260113;61;1033;-86
2022/01/07 06:08:37;569930.00;1.90;982.33;0.00;0.00;0.62;;;;;4.40;1.00;;;;;;2253516;61;1007;-86
2022/01/07 06:11:04;318527.00;1.06;549.77;0.00;0.00;0.62;;;;;4.20;1.00;;;;;;2260031;61;1280;-85
2022/01/07 06:13:31;416272.00;1.39;717.78;0.00;0.00;0.62;;;;;3.80;1.00;;;;;;2254032;61;1006;-86
2022/01/07 06:15:58;428174.00;1.43;738.25;0.00;0.00;0.62;;;;;4.30;1.00;;;;;;2268470;61;1993;-86
2022/01/07 06:18:25;468470.00;1.56;807.56;0.00;0.00;0.62;;;;;4.90;1.00;;;;;;2266707;61;978;-85
2022/01/07 06:20:53;401799.00;1.34;692.90;0.00;0.00;0.62;;;;;5.70;1.00;;;;;;2275469;61;1292;-85
2022/01/07 06:23:20;408342.00;1.36;704.15;0.00;0.00;0.62;;;;;7.00;1.00;;;;;;2275492;61;1053;-86
2022/01/07 06:25:49;288329.00;0.96;497.86;0.00;0.00;0.62;;;;;7.90;1.00;;;;;;2272057;61;995;-86
2022/01/07 06:28:16;359738.00;1.20;620.60;0.00;0.00;0.62;;;;;8.00;1.00;;;;;;2275572;61;1008;-85
2022/01/07 06:30:43;483178.00;1.61;832.87;0.00;0.00;0.62;;;;;7.90;1.00;;;;;;2275567;61;1387;-86
2022/01/07 06:33:11;388261.00;1.29;669.63;0.00;0.00;0.62;;;;;8.10;1.00;;;;;;2275579;61;1025;-87
2022/01/07 06:35:38;327215.00;1.09;564.70;0.00;0.00;0.62;;;;;8.30;1.00;;;;;;2272149;61;2000;-85
2022/01/07 06:38:06;339863.00;1.13;586.44;0.00;0.00;0.62;;;;;8.30;1.00;;;;;;2271875;61;1034;-85
2022/01/07 06:40:33;278541.00;0.93;481.03;0.00;0.00;0.62;;;;;8.60;1.00;;;;;;2265417;61;1380;-85
2022/01/07 06:43:00;137228.00;0.46;237.79;0.00;0.00;0.62;;;;;8.90;1.00;;;;;;2275482;61;1047;-86
2022/01/07 06:45:27;265970.00;0.89;459.41;0.00;0.00;0.62;;;;;8.40;1.00;;;;;;2268715;61;1046;-85
2022/01/07 06:47:54;349323.00;1.16;602.70;0.00;0.00;0.62;;;;;8.40;1.00;;;;;;2275400;61;1617;-86
2022/01/07 06:50:21;349029.00;1.16;602.19;0.00;0.00;0.62;;;;;8.50;1.00;;;;;;2275519;61;1051;-86
2022/01/07 06:52:49;261530.00;0.87;451.78;0.00;0.00;0.62;;;;;8.90;1.00;;;;;;2275433;61;1448;-86
2022/01/07 06:55:18;307045.00;1.02;530.03;0.00;0.00;0.62;;;;;8.50;1.00;;;;;;2276476;60;1939;-85
2022/01/07 06:57:45;348310.00;1.16;600.96;0.00;0.00;0.62;;;;;8.10;1.00;;;;;;2273523;60;985;-85
2022/01/07 07:00:12;502432.00;1.67;866.01;0.00;0.00;0.62;;;;;8.30;1.00;;;;;;2284056;60;920;-85
2022/01/07 07:02:40;291840.00;0.97;503.89;0.00;0.00;0.62;;;;;8.00;1.00;;;;;;2276814;60;1299;-85
2022/01/07 07:05:07;348649.00;1.16;601.54;0.00;0.00;0.62;;;;;8.80;1.00;;;;;;2275365;61;980;-85
2022/01/07 07:07:34;465622.00;1.55;802.66;0.00;0.00;0.62;;;;;8.60;1.00;;;;;;2275389;61;1074;-85
2022/01/07 07:10:01;309235.00;1.03;533.79;0.00;0.00;0.62;;;;;9.00;1.00;;;;;;2268638;61;1037;-86
2022/01/07 07:12:29;335232.00;1.12;578.48;0.00;0.00;0.62;;;;;9.40;1.00;;;;;;2268551;61;1314;-86
2022/01/07 07:14:57;275419.00;0.92;475.66;0.00;0.00;0.62;;;;;9.20;1.00;;;;;;2267122;61;953;-86
2022/01/07 07:17:24;296880.00;0.99;512.56;0.00;0.00;0.62;;;;;8.90;1.00;;;;;;2267146;61;2011;-86
2022/01/07 07:19:51;349733.00;1.17;603.40;0.00;0.00;0.62;;;;;8.60;1.00;;;;;;2267298;61;1025;-85
2022/01/07 07:22:20;357353.00;1.19;616.50;0.00;0.00;0.62;;;;;8.20;1.00;;;;;;2268242;61;1325;-86
2022/01/07 07:24:48;434212.00;1.45;748.63;0.00;0.00;0.62;;;;;7.60;1.00;;;;;;2267253;61;999;-86
2022/01/07 07:27:15;369045.00;1.23;636.60;0.00;0.00;0.62;;;;;7.60;1.00;;;;;;2267244;61;1051;-86
2022/01/07 07:30:05;315554.00;1.05;544.66;0.00;0.00;0.62;;;;;7.20;1.00;;;;;;2259760;61;1031;-85
2022/01/07 07:32:33;694301.00;2.31;1197.36;99544.00;0.33;172.78;;;;;7.20;1.00;;;;;;2260969;61;1468;-84
2022/01/07 07:36:26;701716.00;2.34;1210.21;100127.00;0.33;173.79;;;;;7.40;1.00;;;;;;2263928;61;999;-84
2022/01/07 07:37:50;491233.00;1.64;846.73;101928.00;0.34;176.90;;;;;7.40;1.00;;;;;;2259760;61;1934;-86
2022/01/07 07:40:18;480158.00;1.60;827.67;99684.00;0.33;173.03;;;;;7.40;1.00;;;;;;2253352;61;988;-86
2022/01/07 07:42:45;353343.00;1.18;609.61;100352.00;0.33;174.18;;;;;7.00;1.00;;;;;;2259890;61;1408;-86
2022/01/07 07:45:16;604521.00;2.02;1042.03;99543.00;0.33;172.78;;;;;6.80;1.00;;;;;;2260069;61;993;-87
2022/01/07 07:47:43;575015.00;1.92;991.10;110555.00;0.37;191.79;;;;;7.30;1.00;;;;;;2263575;61;971;-86
2022/01/07 07:50:10;544323.00;1.81;938.17;88837.00;0.30;154.30;;;;;7.50;1.00;;;;;;2268040;61;1030;-88
2022/01/07 07:52:37;518517.00;1.73;893.71;89372.00;0.30;155.22;;;;;7.30;1.00;;;;;;2264832;61;1531;-88
2022/01/07 07:55:05;583556.00;1.95;1005.83;93326.00;0.31;162.05;;;;;7.70;1.00;;;;;;2265950;61;1070;-86
2022/01/07 07:57:32;465333.00;1.55;802.16;93737.00;0.31;162.76;;;;;7.30;1.00;;;;;;2273513;61;2038;-89
2022/01/07 07:59:59;440113.00;1.47;758.78;91335.00;0.30;158.61;;;;;6.70;1.00;;;;;;2273985;61;1093;-88
2022/01/07 08:02:30;412413.00;1.37;711.15;103590.00;0.35;179.77;;;;;6.10;1.00;;;;;;2274317;61;1441;-89
2022/01/07 08:04:57;587829.00;1.96;1013.21;94617.00;0.32;164.28;;;;;5.70;1.00;;;;;;2267122;61;1077;-89
2022/01/07 08:07:24;556175.00;1.85;958.61;94316.00;0.31;163.76;;;;;5.70;1.00;;;;;;2267384;61;1037;-89
2022/01/07 08:09:53;529975.00;1.77;913.45;102108.00;0.34;177.21;;;;;6.10;1.00;;;;;;2263198;61;1126;-88
2022/01/07 08:12:25;514142.00;1.71;886.18;99987.00;0.33;173.55;;;;;5.90;1.00;;;;;;2266315;61;1475;-89
2022/01/07 08:17:38;744486.00;2.48;1284.47;120964.00;0.40;209.75;;;;;5.70;1.00;;;;;;2266260;61;1938;-87
2022/01/07 08:20:06;543773.00;1.81;937.23;92443.00;0.31;160.53;;;;;5.90;1.00;;;;;;2265919;61;1174;-88
2022/01/07 08:22:33;547464.00;1.82;943.59;89627.00;0.30;155.66;;;;;6.30;1.00;;;;;;2263477;61;1413;-88
2022/01/07 08:25:00;783516.00;2.61;1352.39;137239.00;0.46;237.81;;;;;6.80;1.00;;;;;;2267564;61;1041;-85
2022/01/07 08:27:27;117468776.00;391.56;65659352.00;90783.00;0.30;157.66;;;;;7.10;1.00;;;;;;2265154;61;994;-89
2022/01/07 08:29:54;654927.00;2.18;1129.16;96709.00;0.32;167.89;;;;;7.70;1.00;;;;;;2267056;61;991;-87
2022/01/07 08:35:08;535420.00;1.78;922.83;97107.00;0.32;168.58;;;;;7.80;1.00;;;;;;2270039;61;934;-89
2022/01/07 08:37:35;315641.00;1.05;544.81;0.00;0.00;0.62;;;;;7.70;1.00;;;;;;2270331;61;1923;-88
2022/01/07 08:40:02;497145.00;1.66;856.91;24428.00;0.08;42.94;;;;;7.40;1.00;;;;;;2273231;61;1093;-88
2022/01/07 08:42:29;467098.00;1.56;805.20;0.00;0.00;0.62;;;;;7.00;1.00;;;;;;2282902;61;1443;-88
2022/01/07 08:44:56;442020.00;1.47;762.06;0.00;0.00;0.62;;;;;6.90;1.00;;;;;;2272507;61;1141;-88
2022/01/07 08:47:25;462386.00;1.54;797.09;41607.00;0.14;72.67;;;;;6.90;1.00;;;;;;2275384;61;1228;-89
2022/01/07 08:49:53;239459.00;0.80;413.82;0.00;0.00;0.62;;;;;6.80;1.00;;;;;;2275583;61;1132;-89
2022/01/07 08:52:22;285221.00;0.95;492.51;0.00;0.00;0.62;;;;;6.80;1.00;;;;;;2282802;61;1442;-88
2022/01/07 08:54:55;371014.00;1.24;639.98;0.00;0.00;0.62;;;;;6.80;1.00;;;;;;2283003;61;1068;-89
2022/01/07 08:57:22;270249.00;0.90;466.77;0.00;0.00;0.62;;;;;6.90;1.00;;;;;;2283154;61;1915;-89
2022/01/07 08:59:51;384344.00;1.28;662.89;0.00;0.00;0.62;;;;;6.60;1.00;;;;;;2283323;61;1263;-89
2022/01/07 09:02:19;444252.00;1.48;765.90;0.00;0.00;0.62;;;;;6.70;1.00;;;;;;2282798;61;1364;-88
2022/01/07 09:04:45;260683.00;0.87;450.32;0.00;0.00;0.62;;;;;6.80;1.00;;;;;;2282657;61;1582;-88
2022/01/07 09:07:12;423398.00;1.41;730.03;36476.00;0.12;63.79;;;;;6.60;1.00;;;;;;2283392;61;1187;-88
2022/01/07 09:09:41;375978.00;1.25;648.51;0.00;0.00;0.62;;;;;6.80;1.00;;;;;;2270141;61;1315;-88
2022/01/07 09:12:09;291291.00;0.97;502.95;0.00;0.00;0.62;;;;;6.70;1.00;;;;;;2266014;61;1375;-87
2022/01/07 09:14:36;203909.00;0.68;352.65;0.00;0.00;0.62;;;;;6.60;1.00;;;;;;2265908;61;1641;-89
2022/01/07 09:17:03;328041.00;1.09;566.12;0.00;0.00;0.62;;;;;6.50;1.00;;;;;;2265825;61;1945;-88
2022/01/07 09:19:30;456071.00;1.52;786.23;0.00;0.00;0.62;;;;;6.50;1.00;;;;;;2265627;61;1597;-88
2022/01/07 09:21:57;283767.00;0.95;490.01;0.00;0.00;0.62;;;;;6.80;1.00;;;;;;2258918;61;1384;-88
2022/01/07 09:24:27;415903.00;1.39;717.15;0.00;0.00;0.62;;;;;6.90;1.00;;;;;;2265316;61;1472;-88
2022/01/07 09:26:55;405079.00;1.35;698.54;0.00;0.00;0.62;;;;;7.10;1.00;;;;;;2266117;61;1132;-89
2022/01/07 09:29:23;283989.00;0.95;490.40;0.00;0.00;0.62;;;;;7.20;1.00;;;;;;2270992;61;1612;-88
2022/01/07 09:31:51;358454.00;1.19;618.39;0.00;0.00;0.62;;;;;7.20;1.00;;;;;;2281677;61;1796;-88
2022/01/07 09:34:18;385593.00;1.29;665.04;0.00;0.00;0.62;;;;;7.30;1.00;;;;;;2283790;61;1135;-88
2022/01/07 09:36:45;275116.00;0.92;475.14;0.00;0.00;0.62;;;;;6.90;1.00;;;;;;2283985;60;1919;-88
2022/01/07 09:39:13;589440.00;1.96;1015.99;49068.00;0.16;85.57;;;;;7.30;1.00;;;;;;2283999;61;1157;-88
2022/01/07 09:41:40;377204.00;1.26;650.62;7080.00;0.02;12.89;;;;;7.60;1.00;;;;;;2282814;61;1312;-88
2022/01/07 09:44:11;479557.00;1.60;826.64;0.00;0.00;0.62;;;;;7.60;1.00;;;;;;2282881;61;1219;-88
2022/01/07 09:46:40;486960.00;1.62;839.38;0.00;0.00;0.62;;;;;7.50;1.00;;;;;;2275207;61;1144;-88
2022/01/07 09:49:09;598234.00;1.99;1031.17;0.00;0.00;0.62;;;;;7.60;1.00;;;;;;2275692;61;1674;-88
2022/01/07 09:51:41;312488.00;1.04;539.39;0.00;0.00;0.62;;;;;7.80;1.00;;;;;;2275429;61;1427;-88
2022/01/07 09:54:09;336060.00;1.12;579.90;0.00;0.00;0.62;;;;;7.70;1.00;;;;;;2263460;61;1052;-88
2022/01/07 09:56:38;553952.00;1.85;954.77;0.00;0.00;0.62;;;;;7.40;1.00;;;;;;2263574;61;1997;-88
2022/01/07 09:59:07;516539.00;1.72;890.30;28314.00;0.09;49.66;;;;;7.10;1.00;;;;;;2263062;61;1052;-88
2022/01/07 10:01:55;501811.00;1.67;864.94;41705.00;0.14;72.84;;;;;7.00;1.00;;;;;;2249913;61;1366;-88